sensor_id;sensor_type;location;lat;lon;timestamp;P1;durP1;ratioP1;P2;durP2;ratioP2
966;SDS011;56108;48.730;9.304;2022-09-30T00:00:38;15.98;;;12.60;;
966;SDS011;56108;48.730;9.304;2022-09-30T00:02:47;21.33;;;12.70;;
966;SDS011;56108;48.730;9.304;2022-09-30T00:04:55;14.02;;;12.52;;
966;SDS011;56108;48.730;9.304;2022-09-30T00:07:03;13.00;;;11.73;;
966;SDS011;56108;48.730;9.304;2022-09-30T00:09:15;12.43;;;11.18;;
966;SDS011;56108;48.730;9.304;2022-09-30T00:11:25;13.15;;;11.75;;
966;SDS011;56108;48.730;9.304;2022-09-30T00:13:36;13.68;;;11.63;;
966;SDS011;56108;48.730;9.304;2022-09-30T00:15:45;13.77;;;11.95;;
966;SDS011;56108;48.730;9.304;2022-09-30T00:17:53;12.77;;;11.57;;
966;SDS011;56108;48.730;9.304;2022-09-30T00:20:03;14.73;;;11.75;;
966;SDS011;56108;48.730;9.304;2022-09-30T00:22:12;16.05;;;13.55;;
966;SDS011;56108;48.730;9.304;2022-09-30T00:24:22;20.27;;;12.43;;
966;SDS011;56108;48.730;9.304;2022-09-30T00:26:31;13.98;;;12.48;;
966;SDS011;56108;48.730;9.304;2022-09-30T00:28:40;16.13;;;14.23;;
966;SDS011;56108;48.730;9.304;2022-09-30T00:30:50;17.15;;;13.38;;
966;SDS011;56108;48.730;9.304;2022-09-30T00:32:58;18.50;;;14.30;;
966;SDS011;56108;48.730;9.304;2022-09-30T00:35:07;17.38;;;13.80;;
966;SDS011;56108;48.730;9.304;2022-09-30T00:37:15;19.00;;;15.02;;
966;SDS011;56108;48.730;9.304;2022-09-30T00:39:26;16.98;;;14.35;;
966;SDS011;56108;48.730;9.304;2022-09-30T00:41:38;16.70;;;14.52;;
966;SDS011;56108;48.730;9.304;2022-09-30T00:43:47;18.20;;;15.25;;
966;SDS011;56108;48.730;9.304;2022-09-30T00:45:58;16.30;;;14.60;;
966;SDS011;56108;48.730;9.304;2022-09-30T00:48:07;17.27;;;15.00;;
966;SDS011;56108;48.730;9.304;2022-09-30T00:50:25;16.45;;;14.25;;
966;SDS011;56108;48.730;9.304;2022-09-30T00:52:39;18.70;;;15.10;;
966;SDS011;56108;48.730;9.304;2022-09-30T00:54:51;20.65;;;15.68;;
966;SDS011;56108;48.730;9.304;2022-09-30T00:57:02;21.33;;;14.55;;
966;SDS011;56108;48.730;9.304;2022-09-30T00:59:12;22.73;;;15.45;;
966;SDS011;56108;48.730;9.304;2022-09-30T01:01:23;14.40;;;12.90;;
966;SDS011;56108;48.730;9.304;2022-09-30T01:03:33;13.98;;;12.52;;
966;SDS011;56108;48.730;9.304;2022-09-30T01:05:44;15.07;;;13.48;;
966;SDS011;56108;48.730;9.304;2022-09-30T01:07:53;22.17;;;13.32;;
966;SDS011;56108;48.730;9.304;2022-09-30T01:10:08;14.00;;;12.75;;
966;SDS011;56108;48.730;9.304;2022-09-30T01:12:17;15.85;;;14.20;;
966;SDS011;56108;48.730;9.304;2022-09-30T01:14:29;15.65;;;13.38;;
966;SDS011;56108;48.730;9.304;2022-09-30T01:16:40;14.82;;;11.77;;
966;SDS011;56108;48.730;9.304;2022-09-30T01:21:38;14.23;;;12.77;;
966;SDS011;56108;48.730;9.304;2022-09-30T01:24:07;13.90;;;12.27;;
966;SDS011;56108;48.730;9.304;2022-09-30T01:26:39;13.55;;;11.80;;
966;SDS011;56108;48.730;9.304;2022-09-30T01:31:41;16.50;;;14.95;;
966;SDS011;56108;48.730;9.304;2022-09-30T01:33:57;14.65;;;13.10;;
966;SDS011;56108;48.730;9.304;2022-09-30T01:36:19;14.60;;;12.95;;
966;SDS011;56108;48.730;9.304;2022-09-30T01:38:40;15.85;;;14.27;;
966;SDS011;56108;48.730;9.304;2022-09-30T01:40:58;14.30;;;12.82;;
966;SDS011;56108;48.730;9.304;2022-09-30T01:43:12;17.00;;;13.57;;
966;SDS011;56108;48.730;9.304;2022-09-30T01:45:28;16.02;;;14.43;;
966;SDS011;56108;48.730;9.304;2022-09-30T01:47:45;15.18;;;13.57;;
966;SDS011;56108;48.730;9.304;2022-09-30T01:49:58;15.52;;;13.90;;
966;SDS011;56108;48.730;9.304;2022-09-30T01:52:10;16.15;;;14.48;;
966;SDS011;56108;48.730;9.304;2022-09-30T01:54:26;16.08;;;13.70;;
966;SDS011;56108;48.730;9.304;2022-09-30T01:56:42;15.25;;;13.80;;
966;SDS011;56108;48.730;9.304;2022-09-30T01:58:54;15.65;;;13.63;;
966;SDS011;56108;48.730;9.304;2022-09-30T02:01:06;14.73;;;13.38;;
966;SDS011;56108;48.730;9.304;2022-09-30T02:03:23;14.63;;;13.23;;
966;SDS011;56108;48.730;9.304;2022-09-30T02:05:36;15.48;;;14.07;;
966;SDS011;56108;48.730;9.304;2022-09-30T02:07:51;15.20;;;13.38;;
966;SDS011;56108;48.730;9.304;2022-09-30T02:10:04;15.95;;;12.98;;
966;SDS011;56108;48.730;9.304;2022-09-30T02:12:18;18.98;;;14.20;;
966;SDS011;56108;48.730;9.304;2022-09-30T02:14:30;15.65;;;14.07;;
966;SDS011;56108;48.730;9.304;2022-09-30T02:16:45;15.55;;;14.00;;
966;SDS011;56108;48.730;9.304;2022-09-30T02:18:59;16.15;;;14.43;;
966;SDS011;56108;48.730;9.304;2022-09-30T02:21:14;16.95;;;14.68;;
966;SDS011;56108;48.730;9.304;2022-09-30T02:23:29;17.52;;;15.48;;
966;SDS011;56108;48.730;9.304;2022-09-30T02:25:44;15.82;;;14.25;;
966;SDS011;56108;48.730;9.304;2022-09-30T02:27:57;15.52;;;13.52;;
966;SDS011;56108;48.730;9.304;2022-09-30T02:30:09;16.38;;;14.77;;
966;SDS011;56108;48.730;9.304;2022-09-30T02:32:21;17.38;;;14.70;;
966;SDS011;56108;48.730;9.304;2022-09-30T02:34:37;17.42;;;12.93;;
966;SDS011;56108;48.730;9.304;2022-09-30T02:36:51;19.73;;;13.95;;
966;SDS011;56108;48.730;9.304;2022-09-30T02:39:06;17.10;;;14.50;;
966;SDS011;56108;48.730;9.304;2022-09-30T02:41:21;16.25;;;14.70;;
966;SDS011;56108;48.730;9.304;2022-09-30T02:43:32;16.55;;;13.75;;
966;SDS011;56108;48.730;9.304;2022-09-30T02:45:44;16.05;;;14.35;;
966;SDS011;56108;48.730;9.304;2022-09-30T02:48:02;16.88;;;14.90;;
966;SDS011;56108;48.730;9.304;2022-09-30T02:50:22;15.73;;;14.13;;
966;SDS011;56108;48.730;9.304;2022-09-30T02:52:41;19.05;;;15.82;;
966;SDS011;56108;48.730;9.304;2022-09-30T02:55:00;18.25;;;16.42;;
966;SDS011;56108;48.730;9.304;2022-09-30T02:57:21;17.02;;;15.23;;
966;SDS011;56108;48.730;9.304;2022-09-30T02:59:36;14.30;;;12.90;;
966;SDS011;56108;48.730;9.304;2022-09-30T03:01:45;16.50;;;14.80;;
966;SDS011;56108;48.730;9.304;2022-09-30T03:03:54;14.93;;;13.60;;
966;SDS011;56108;48.730;9.304;2022-09-30T03:06:08;15.48;;;13.98;;
966;SDS011;56108;48.730;9.304;2022-09-30T03:08:17;13.38;;;12.02;;
966;SDS011;56108;48.730;9.304;2022-09-30T03:10:26;12.70;;;11.40;;
966;SDS011;56108;48.730;9.304;2022-09-30T03:12:38;14.27;;;12.88;;
966;SDS011;56108;48.730;9.304;2022-09-30T03:15:10;13.13;;;11.82;;
966;SDS011;56108;48.730;9.304;2022-09-30T03:17:34;13.65;;;12.27;;
966;SDS011;56108;48.730;9.304;2022-09-30T03:20:08;14.93;;;13.43;;
966;SDS011;56108;48.730;9.304;2022-09-30T03:22:38;15.63;;;12.50;;
966;SDS011;56108;48.730;9.304;2022-09-30T03:25:09;19.73;;;13.20;;
966;SDS011;56108;48.730;9.304;2022-09-30T03:27:27;13.60;;;12.30;;
966;SDS011;56108;48.730;9.304;2022-09-30T03:29:43;13.05;;;11.85;;
966;SDS011;56108;48.730;9.304;2022-09-30T03:31:57;14.00;;;12.52;;
966;SDS011;56108;48.730;9.304;2022-09-30T03:34:14;14.05;;;12.40;;
966;SDS011;56108;48.730;9.304;2022-09-30T03:36:33;13.65;;;12.35;;
966;SDS011;56108;48.730;9.304;2022-09-30T03:38:49;13.10;;;11.70;;
966;SDS011;56108;48.730;9.304;2022-09-30T03:41:06;15.63;;;13.98;;
966;SDS011;56108;48.730;9.304;2022-09-30T03:43:22;14.27;;;12.88;;
966;SDS011;56108;48.730;9.304;2022-09-30T03:45:36;13.60;;;12.25;;
966;SDS011;56108;48.730;9.304;2022-09-30T03:47:51;15.07;;;13.57;;
966;SDS011;56108;48.730;9.304;2022-09-30T03:50:05;15.32;;;13.82;;
966;SDS011;56108;48.730;9.304;2022-09-30T03:52:16;15.02;;;13.43;;
966;SDS011;56108;48.730;9.304;2022-09-30T03:54:28;15.93;;;14.38;;
966;SDS011;56108;48.730;9.304;2022-09-30T03:56:38;16.17;;;14.35;;
966;SDS011;56108;48.730;9.304;2022-09-30T03:58:48;18.60;;;14.73;;
966;SDS011;56108;48.730;9.304;2022-09-30T04:00:57;15.35;;;13.73;;
966;SDS011;56108;48.730;9.304;2022-09-30T04:03:06;16.02;;;14.52;;
966;SDS011;56108;48.730;9.304;2022-09-30T04:05:14;16.88;;;15.07;;
966;SDS011;56108;48.730;9.304;2022-09-30T04:07:23;16.00;;;14.00;;
966;SDS011;56108;48.730;9.304;2022-09-30T04:09:34;15.18;;;13.75;;
966;SDS011;56108;48.730;9.304;2022-09-30T04:11:42;16.98;;;15.32;;
966;SDS011;56108;48.730;9.304;2022-09-30T04:13:50;16.10;;;14.40;;
966;SDS011;56108;48.730;9.304;2022-09-30T04:15:59;18.98;;;14.07;;
966;SDS011;56108;48.730;9.304;2022-09-30T04:18:08;15.88;;;14.15;;
966;SDS011;56108;48.730;9.304;2022-09-30T04:20:16;16.90;;;15.15;;
966;SDS011;56108;48.730;9.304;2022-09-30T04:22:25;15.80;;;14.10;;
966;SDS011;56108;48.730;9.304;2022-09-30T04:24:36;18.60;;;16.02;;
966;SDS011;56108;48.730;9.304;2022-09-30T04:26:47;15.95;;;14.35;;
966;SDS011;56108;48.730;9.304;2022-09-30T04:28:56;19.13;;;16.80;;
966;SDS011;56108;48.730;9.304;2022-09-30T04:31:05;18.48;;;16.63;;
966;SDS011;56108;48.730;9.304;2022-09-30T04:33:13;17.40;;;15.55;;
966;SDS011;56108;48.730;9.304;2022-09-30T04:35:22;21.00;;;18.27;;
966;SDS011;56108;48.730;9.304;2022-09-30T04:37:33;18.42;;;16.40;;
966;SDS011;56108;48.730;9.304;2022-09-30T04:39:45;19.25;;;16.27;;
966;SDS011;56108;48.730;9.304;2022-09-30T04:41:54;23.75;;;17.45;;
966;SDS011;56108;48.730;9.304;2022-09-30T04:44:02;24.48;;;18.65;;
966;SDS011;56108;48.730;9.304;2022-09-30T04:46:12;29.50;;;19.17;;
966;SDS011;56108;48.730;9.304;2022-09-30T04:48:21;23.02;;;18.15;;
966;SDS011;56108;48.730;9.304;2022-09-30T04:50:29;26.83;;;22.38;;
966;SDS011;56108;48.730;9.304;2022-09-30T04:52:40;32.60;;;20.92;;
966;SDS011;56108;48.730;9.304;2022-09-30T04:57:18;30.02;;;22.33;;
966;SDS011;56108;48.730;9.304;2022-09-30T04:59:27;32.88;;;22.15;;
966;SDS011;56108;48.730;9.304;2022-09-30T05:01:37;25.55;;;20.15;;
966;SDS011;56108;48.730;9.304;2022-09-30T05:03:47;30.50;;;22.23;;
966;SDS011;56108;48.730;9.304;2022-09-30T05:05:55;23.98;;;19.48;;
966;SDS011;56108;48.730;9.304;2022-09-30T05:08:04;30.08;;;22.45;;
966;SDS011;56108;48.730;9.304;2022-09-30T05:10:15;28.92;;;20.90;;
966;SDS011;56108;48.730;9.304;2022-09-30T05:12:25;29.55;;;22.13;;
966;SDS011;56108;48.730;9.304;2022-09-30T05:14:33;36.17;;;23.23;;
966;SDS011;56108;48.730;9.304;2022-09-30T05:16:44;31.77;;;22.60;;
966;SDS011;56108;48.730;9.304;2022-09-30T05:18:52;33.50;;;23.02;;
966;SDS011;56108;48.730;9.304;2022-09-30T05:21:01;26.63;;;21.98;;
966;SDS011;56108;48.730;9.304;2022-09-30T05:23:10;28.55;;;21.45;;
966;SDS011;56108;48.730;9.304;2022-09-30T05:25:21;26.15;;;20.88;;
966;SDS011;56108;48.730;9.304;2022-09-30T05:27:30;26.40;;;21.05;;
966;SDS011;56108;48.730;9.304;2022-09-30T05:29:38;28.27;;;20.35;;
966;SDS011;56108;48.730;9.304;2022-09-30T05:31:47;27.67;;;20.35;;
966;SDS011;56108;48.730;9.304;2022-09-30T05:33:55;24.08;;;20.42;;
966;SDS011;56108;48.730;9.304;2022-09-30T05:36:04;25.92;;;19.23;;
966;SDS011;56108;48.730;9.304;2022-09-30T05:38:14;21.35;;;18.25;;
966;SDS011;56108;48.730;9.304;2022-09-30T05:40:25;22.67;;;18.65;;
966;SDS011;56108;48.730;9.304;2022-09-30T05:42:34;20.77;;;17.80;;
966;SDS011;56108;48.730;9.304;2022-09-30T05:44:42;21.45;;;18.65;;
966;SDS011;56108;48.730;9.304;2022-09-30T05:46:52;23.15;;;17.92;;
966;SDS011;56108;48.730;9.304;2022-09-30T05:49:01;23.58;;;18.13;;
966;SDS011;56108;48.730;9.304;2022-09-30T05:51:10;20.25;;;16.05;;
966;SDS011;56108;48.730;9.304;2022-09-30T05:53:20;20.52;;;16.30;;
966;SDS011;56108;48.730;9.304;2022-09-30T05:55:32;19.95;;;17.25;;
966;SDS011;56108;48.730;9.304;2022-09-30T05:57:43;22.98;;;18.30;;
966;SDS011;56108;48.730;9.304;2022-09-30T05:59:54;24.50;;;19.65;;
966;SDS011;56108;48.730;9.304;2022-09-30T06:02:03;21.30;;;16.65;;
966;SDS011;56108;48.730;9.304;2022-09-30T06:04:12;20.40;;;17.17;;
966;SDS011;56108;48.730;9.304;2022-09-30T06:06:20;20.45;;;17.08;;
966;SDS011;56108;48.730;9.304;2022-09-30T06:08:28;21.73;;;17.60;;
966;SDS011;56108;48.730;9.304;2022-09-30T06:10:42;27.23;;;19.40;;
966;SDS011;56108;48.730;9.304;2022-09-30T06:12:50;24.10;;;19.15;;
966;SDS011;56108;48.730;9.304;2022-09-30T06:14:58;61.80;;;23.70;;
966;SDS011;56108;48.730;9.304;2022-09-30T06:17:07;40.22;;;18.02;;
966;SDS011;56108;48.730;9.304;2022-09-30T06:19:15;48.67;;;18.67;;
966;SDS011;56108;48.730;9.304;2022-09-30T06:21:25;87.13;;;25.20;;
966;SDS011;56108;48.730;9.304;2022-09-30T06:23:33;62.85;;;20.88;;
966;SDS011;56108;48.730;9.304;2022-09-30T06:25:48;22.50;;;17.05;;
966;SDS011;56108;48.730;9.304;2022-09-30T06:27:57;22.67;;;17.85;;
966;SDS011;56108;48.730;9.304;2022-09-30T06:30:06;22.42;;;19.17;;
966;SDS011;56108;48.730;9.304;2022-09-30T06:32:16;36.53;;;21.35;;
966;SDS011;56108;48.730;9.304;2022-09-30T06:34:24;59.15;;;21.45;;
966;SDS011;56108;48.730;9.304;2022-09-30T06:36:32;31.63;;;18.50;;
966;SDS011;56108;48.730;9.304;2022-09-30T06:38:40;24.20;;;18.23;;
966;SDS011;56108;48.730;9.304;2022-09-30T06:40:52;50.88;;;19.92;;
966;SDS011;56108;48.730;9.304;2022-09-30T06:43:01;56.75;;;21.17;;
966;SDS011;56108;48.730;9.304;2022-09-30T06:45:10;28.75;;;18.70;;
966;SDS011;56108;48.730;9.304;2022-09-30T06:47:35;49.88;;;20.98;;
966;SDS011;56108;48.730;9.304;2022-09-30T06:49:51;25.25;;;20.52;;
966;SDS011;56108;48.730;9.304;2022-09-30T06:52:02;49.55;;;21.08;;
966;SDS011;56108;48.730;9.304;2022-09-30T06:54:11;38.72;;;18.80;;
966;SDS011;56108;48.730;9.304;2022-09-30T06:56:21;20.30;;;17.85;;
966;SDS011;56108;48.730;9.304;2022-09-30T06:58:30;23.77;;;18.48;;
966;SDS011;56108;48.730;9.304;2022-09-30T07:00:38;29.23;;;19.40;;
966;SDS011;56108;48.730;9.304;2022-09-30T07:02:47;38.85;;;20.13;;
966;SDS011;56108;48.730;9.304;2022-09-30T07:04:55;27.55;;;18.67;;
966;SDS011;56108;48.730;9.304;2022-09-30T07:07:03;35.78;;;18.85;;
966;SDS011;56108;48.730;9.304;2022-09-30T07:09:12;25.42;;;17.58;;
966;SDS011;56108;48.730;9.304;2022-09-30T07:11:24;25.10;;;18.00;;
966;SDS011;56108;48.730;9.304;2022-09-30T07:13:33;35.63;;;18.48;;
966;SDS011;56108;48.730;9.304;2022-09-30T07:15:41;101.28;;;24.85;;
966;SDS011;56108;48.730;9.304;2022-09-30T07:17:50;151.32;;;27.23;;
966;SDS011;56108;48.730;9.304;2022-09-30T07:20:00;38.55;;;19.80;;
966;SDS011;56108;48.730;9.304;2022-09-30T07:22:08;41.95;;;19.88;;
966;SDS011;56108;48.730;9.304;2022-09-30T07:24:29;20.25;;;17.58;;
966;SDS011;56108;48.730;9.304;2022-09-30T07:26:41;32.75;;;17.95;;
966;SDS011;56108;48.730;9.304;2022-09-30T07:28:50;26.98;;;17.25;;
966;SDS011;56108;48.730;9.304;2022-09-30T07:31:01;21.35;;;16.63;;
966;SDS011;56108;48.730;9.304;2022-09-30T07:33:35;23.00;;;17.80;;
966;SDS011;56108;48.730;9.304;2022-09-30T07:35:50;17.70;;;15.88;;
966;SDS011;56108;48.730;9.304;2022-09-30T07:37:59;20.38;;;15.88;;
966;SDS011;56108;48.730;9.304;2022-09-30T07:40:08;17.85;;;15.02;;
966;SDS011;56108;48.730;9.304;2022-09-30T07:42:19;17.55;;;15.10;;
966;SDS011;56108;48.730;9.304;2022-09-30T07:44:28;16.88;;;14.77;;
966;SDS011;56108;48.730;9.304;2022-09-30T07:46:37;17.08;;;15.25;;
966;SDS011;56108;48.730;9.304;2022-09-30T07:48:47;18.20;;;13.23;;
966;SDS011;56108;48.730;9.304;2022-09-30T07:50:57;16.70;;;14.18;;
966;SDS011;56108;48.730;9.304;2022-09-30T07:53:05;14.20;;;12.80;;
966;SDS011;56108;48.730;9.304;2022-09-30T07:55:14;13.98;;;12.63;;
966;SDS011;56108;48.730;9.304;2022-09-30T07:57:25;13.45;;;12.25;;
966;SDS011;56108;48.730;9.304;2022-09-30T07:59:34;14.52;;;12.95;;
966;SDS011;56108;48.730;9.304;2022-09-30T08:01:45;14.23;;;12.82;;
966;SDS011;56108;48.730;9.304;2022-09-30T08:03:56;14.98;;;13.52;;
966;SDS011;56108;48.730;9.304;2022-09-30T08:06:07;14.23;;;12.85;;
966;SDS011;56108;48.730;9.304;2022-09-30T08:08:17;13.98;;;12.68;;
966;SDS011;56108;48.730;9.304;2022-09-30T08:10:32;13.63;;;12.35;;
966;SDS011;56108;48.730;9.304;2022-09-30T08:12:44;14.93;;;13.52;;
966;SDS011;56108;48.730;9.304;2022-09-30T08:14:52;13.93;;;12.60;;
966;SDS011;56108;48.730;9.304;2022-09-30T08:17:01;16.75;;;15.07;;
966;SDS011;56108;48.730;9.304;2022-09-30T08:19:12;14.60;;;12.02;;
966;SDS011;56108;48.730;9.304;2022-09-30T08:21:24;14.82;;;13.35;;
966;SDS011;56108;48.730;9.304;2022-09-30T08:23:32;14.68;;;12.65;;
966;SDS011;56108;48.730;9.304;2022-09-30T08:25:41;13.15;;;11.82;;
966;SDS011;56108;48.730;9.304;2022-09-30T08:27:52;13.80;;;12.50;;
966;SDS011;56108;48.730;9.304;2022-09-30T08:30:04;14.35;;;12.85;;
966;SDS011;56108;48.730;9.304;2022-09-30T08:32:18;13.88;;;12.25;;
966;SDS011;56108;48.730;9.304;2022-09-30T08:34:29;13.57;;;12.18;;
966;SDS011;56108;48.730;9.304;2022-09-30T08:36:39;12.98;;;11.68;;
966;SDS011;56108;48.730;9.304;2022-09-30T08:38:50;14.88;;;13.45;;
966;SDS011;56108;48.730;9.304;2022-09-30T08:41:03;14.70;;;13.20;;
966;SDS011;56108;48.730;9.304;2022-09-30T08:43:23;13.52;;;12.23;;
966;SDS011;56108;48.730;9.304;2022-09-30T08:45:39;15.93;;;14.32;;
966;SDS011;56108;48.730;9.304;2022-09-30T08:48:02;15.32;;;13.82;;
966;SDS011;56108;48.730;9.304;2022-09-30T08:50:42;14.13;;;12.75;;
966;SDS011;56108;48.730;9.304;2022-09-30T08:52:57;14.27;;;12.57;;
966;SDS011;56108;48.730;9.304;2022-09-30T08:55:09;16.25;;;14.20;;
966;SDS011;56108;48.730;9.304;2022-09-30T08:57:25;14.65;;;13.25;;
966;SDS011;56108;48.730;9.304;2022-09-30T08:59:44;14.32;;;12.82;;
966;SDS011;56108;48.730;9.304;2022-09-30T09:01:57;14.35;;;12.90;;
966;SDS011;56108;48.730;9.304;2022-09-30T09:04:08;14.75;;;13.27;;
966;SDS011;56108;48.730;9.304;2022-09-30T09:06:23;14.77;;;13.27;;
966;SDS011;56108;48.730;9.304;2022-09-30T09:08:40;15.30;;;13.82;;
966;SDS011;56108;48.730;9.304;2022-09-30T09:11:00;14.95;;;13.55;;
966;SDS011;56108;48.730;9.304;2022-09-30T09:13:18;16.77;;;12.88;;
966;SDS011;56108;48.730;9.304;2022-09-30T09:16:01;14.63;;;13.30;;
966;SDS011;56108;48.730;9.304;2022-09-30T09:20:51;14.35;;;12.77;;
966;SDS011;56108;48.730;9.304;2022-09-30T09:23:04;15.63;;;13.57;;
966;SDS011;56108;48.730;9.304;2022-09-30T09:25:19;16.15;;;13.07;;
966;SDS011;56108;48.730;9.304;2022-09-30T09:27:36;14.15;;;12.82;;
966;SDS011;56108;48.730;9.304;2022-09-30T09:29:57;12.85;;;11.65;;
966;SDS011;56108;48.730;9.304;2022-09-30T09:32:14;12.40;;;11.13;;
966;SDS011;56108;48.730;9.304;2022-09-30T09:34:24;13.40;;;12.10;;
966;SDS011;56108;48.730;9.304;2022-09-30T09:36:36;13.13;;;11.88;;
966;SDS011;56108;48.730;9.304;2022-09-30T09:38:57;13.35;;;12.10;;
966;SDS011;56108;48.730;9.304;2022-09-30T09:41:22;14.20;;;13.00;;
966;SDS011;56108;48.730;9.304;2022-09-30T09:43:42;13.67;;;12.27;;
966;SDS011;56108;48.730;9.304;2022-09-30T09:45:59;12.93;;;11.73;;
966;SDS011;56108;48.730;9.304;2022-09-30T09:48:23;13.43;;;12.33;;
966;SDS011;56108;48.730;9.304;2022-09-30T09:50:34;13.75;;;12.50;;
966;SDS011;56108;48.730;9.304;2022-09-30T09:52:54;12.68;;;11.57;;
966;SDS011;56108;48.730;9.304;2022-09-30T09:55:11;12.25;;;11.15;;
966;SDS011;56108;48.730;9.304;2022-09-30T09:57:21;12.32;;;11.32;;
966;SDS011;56108;48.730;9.304;2022-09-30T09:59:35;12.40;;;11.40;;
966;SDS011;56108;48.730;9.304;2022-09-30T10:01:44;11.80;;;10.70;;
966;SDS011;56108;48.730;9.304;2022-09-30T10:03:59;12.13;;;11.13;;
966;SDS011;56108;48.730;9.304;2022-09-30T10:06:29;10.73;;;9.90;;
966;SDS011;56108;48.730;9.304;2022-09-30T10:08:52;11.53;;;10.53;;
966;SDS011;56108;48.730;9.304;2022-09-30T10:11:03;10.43;;;9.53;;
966;SDS011;56108;48.730;9.304;2022-09-30T10:13:17;10.10;;;9.17;;
966;SDS011;56108;48.730;9.304;2022-09-30T10:15:27;10.00;;;9.20;;
966;SDS011;56108;48.730;9.304;2022-09-30T10:17:35;8.30;;;7.70;;
966;SDS011;56108;48.730;9.304;2022-09-30T10:19:49;9.20;;;8.40;;
966;SDS011;56108;48.730;9.304;2022-09-30T10:22:02;7.63;;;7.03;;
966;SDS011;56108;48.730;9.304;2022-09-30T10:24:28;8.10;;;7.43;;
966;SDS011;56108;48.730;9.304;2022-09-30T10:26:42;9.20;;;8.50;;
966;SDS011;56108;48.730;9.304;2022-09-30T10:28:55;8.25;;;7.57;;
966;SDS011;56108;48.730;9.304;2022-09-30T10:31:05;8.50;;;7.80;;
966;SDS011;56108;48.730;9.304;2022-09-30T10:33:21;8.80;;;8.10;;
966;SDS011;56108;48.730;9.304;2022-09-30T10:35:46;9.30;;;8.60;;
966;SDS011;56108;48.730;9.304;2022-09-30T10:37:57;6.63;;;6.07;;
966;SDS011;56108;48.730;9.304;2022-09-30T10:40:07;8.85;;;8.05;;
966;SDS011;56108;48.730;9.304;2022-09-30T10:42:23;8.35;;;7.55;;
966;SDS011;56108;48.730;9.304;2022-09-30T10:44:35;7.65;;;6.95;;
966;SDS011;56108;48.730;9.304;2022-09-30T10:46:49;7.35;;;6.70;;
966;SDS011;56108;48.730;9.304;2022-09-30T10:49:07;7.57;;;7.03;;
966;SDS011;56108;48.730;9.304;2022-09-30T10:51:23;7.43;;;6.70;;
966;SDS011;56108;48.730;9.304;2022-09-30T10:53:34;9.50;;;8.60;;
966;SDS011;56108;48.730;9.304;2022-09-30T10:55:52;6.85;;;6.25;;
966;SDS011;56108;48.730;9.304;2022-09-30T10:58:19;7.93;;;7.15;;
966;SDS011;56108;48.730;9.304;2022-09-30T11:00:33;6.35;;;5.75;;
966;SDS011;56108;48.730;9.304;2022-09-30T11:02:42;7.00;;;6.25;;
966;SDS011;56108;48.730;9.304;2022-09-30T11:05:00;6.25;;;5.75;;
966;SDS011;56108;48.730;9.304;2022-09-30T11:07:20;5.10;;;4.25;;
966;SDS011;56108;48.730;9.304;2022-09-30T11:09:34;6.53;;;5.28;;
966;SDS011;56108;48.730;9.304;2022-09-30T11:11:48;7.15;;;6.40;;
966;SDS011;56108;48.730;9.304;2022-09-30T11:14:01;7.47;;;6.78;;
966;SDS011;56108;48.730;9.304;2022-09-30T11:16:25;5.88;;;5.45;;
966;SDS011;56108;48.730;9.304;2022-09-30T11:18:40;4.75;;;4.35;;
966;SDS011;56108;48.730;9.304;2022-09-30T11:20:53;5.18;;;4.60;;
966;SDS011;56108;48.730;9.304;2022-09-30T11:23:13;4.53;;;4.13;;
966;SDS011;56108;48.730;9.304;2022-09-30T11:25:27;6.75;;;5.68;;
966;SDS011;56108;48.730;9.304;2022-09-30T11:27:50;6.90;;;6.30;;
966;SDS011;56108;48.730;9.304;2022-09-30T11:30:07;5.30;;;4.90;;
966;SDS011;56108;48.730;9.304;2022-09-30T11:32:22;5.68;;;5.22;;
966;SDS011;56108;48.730;9.304;2022-09-30T11:34:42;4.70;;;4.40;;
966;SDS011;56108;48.730;9.304;2022-09-30T11:37:02;5.10;;;4.70;;
966;SDS011;56108;48.730;9.304;2022-09-30T11:39:30;4.60;;;4.30;;
966;SDS011;56108;48.730;9.304;2022-09-30T11:41:50;5.28;;;4.78;;
966;SDS011;56108;48.730;9.304;2022-09-30T11:44:10;4.28;;;3.97;;
966;SDS011;56108;48.730;9.304;2022-09-30T11:46:33;4.50;;;4.10;;
966;SDS011;56108;48.730;9.304;2022-09-30T11:49:00;4.20;;;3.80;;
966;SDS011;56108;48.730;9.304;2022-09-30T11:51:19;3.95;;;3.63;;
966;SDS011;56108;48.730;9.304;2022-09-30T11:53:37;3.70;;;3.40;;
966;SDS011;56108;48.730;9.304;2022-09-30T11:56:00;4.20;;;3.90;;
966;SDS011;56108;48.730;9.304;2022-09-30T11:58:18;5.97;;;4.07;;
966;SDS011;56108;48.730;9.304;2022-09-30T12:00:46;3.30;;;3.05;;
966;SDS011;56108;48.730;9.304;2022-09-30T12:03:00;3.70;;;3.40;;
966;SDS011;56108;48.730;9.304;2022-09-30T12:05:17;3.20;;;2.90;;
966;SDS011;56108;48.730;9.304;2022-09-30T12:07:33;3.25;;;3.05;;
966;SDS011;56108;48.730;9.304;2022-09-30T12:09:46;2.92;;;2.63;;
966;SDS011;56108;48.730;9.304;2022-09-30T12:12:00;2.90;;;2.60;;
966;SDS011;56108;48.730;9.304;2022-09-30T12:14:22;3.53;;;3.22;;
966;SDS011;56108;48.730;9.304;2022-09-30T12:16:35;2.92;;;2.72;;
966;SDS011;56108;48.730;9.304;2022-09-30T12:18:46;3.00;;;2.80;;
966;SDS011;56108;48.730;9.304;2022-09-30T12:21:02;2.88;;;2.67;;
966;SDS011;56108;48.730;9.304;2022-09-30T12:23:18;2.60;;;2.40;;
966;SDS011;56108;48.730;9.304;2022-09-30T12:25:35;2.75;;;2.55;;
966;SDS011;56108;48.730;9.304;2022-09-30T12:27:51;4.82;;;2.50;;
966;SDS011;56108;48.730;9.304;2022-09-30T12:30:09;4.03;;;2.35;;
966;SDS011;56108;48.730;9.304;2022-09-30T12:32:25;2.53;;;2.35;;
966;SDS011;56108;48.730;9.304;2022-09-30T12:34:51;2.88;;;2.38;;
966;SDS011;56108;48.730;9.304;2022-09-30T12:37:13;2.90;;;2.70;;
966;SDS011;56108;48.730;9.304;2022-09-30T12:45:05;2.85;;;2.60;;
966;SDS011;56108;48.730;9.304;2022-09-30T12:47:30;2.72;;;2.60;;
966;SDS011;56108;48.730;9.304;2022-09-30T12:49:42;3.88;;;2.50;;
966;SDS011;56108;48.730;9.304;2022-09-30T12:51:53;2.58;;;2.38;;
966;SDS011;56108;48.730;9.304;2022-09-30T12:54:05;2.15;;;2.05;;
966;SDS011;56108;48.730;9.304;2022-09-30T12:56:20;2.47;;;2.38;;
966;SDS011;56108;48.730;9.304;2022-09-30T12:58:36;2.35;;;2.25;;
966;SDS011;56108;48.730;9.304;2022-09-30T13:01:02;2.38;;;2.20;;
966;SDS011;56108;48.730;9.304;2022-09-30T13:03:16;2.40;;;2.20;;
966;SDS011;56108;48.730;9.304;2022-09-30T13:10:43;3.65;;;2.47;;
966;SDS011;56108;48.730;9.304;2022-09-30T13:13:11;2.45;;;2.28;;
966;SDS011;56108;48.730;9.304;2022-09-30T13:15:38;3.28;;;2.40;;
966;SDS011;56108;48.730;9.304;2022-09-30T13:17:50;2.40;;;2.30;;
966;SDS011;56108;48.730;9.304;2022-09-30T13:19:58;2.53;;;2.33;;
966;SDS011;56108;48.730;9.304;2022-09-30T13:25:03;2.53;;;1.95;;
966;SDS011;56108;48.730;9.304;2022-09-30T13:27:31;1.92;;;1.83;;
966;SDS011;56108;48.730;9.304;2022-09-30T13:29:45;2.42;;;1.77;;
966;SDS011;56108;48.730;9.304;2022-09-30T13:32:01;2.67;;;2.30;;
966;SDS011;56108;48.730;9.304;2022-09-30T13:34:20;2.58;;;2.38;;
966;SDS011;56108;48.730;9.304;2022-09-30T13:36:31;2.42;;;2.22;;
966;SDS011;56108;48.730;9.304;2022-09-30T13:38:48;2.85;;;2.10;;
966;SDS011;56108;48.730;9.304;2022-09-30T13:41:16;2.60;;;2.05;;
966;SDS011;56108;48.730;9.304;2022-09-30T13:43:30;2.08;;;1.90;;
966;SDS011;56108;48.730;9.304;2022-09-30T13:45:42;2.10;;;2.00;;
966;SDS011;56108;48.730;9.304;2022-09-30T13:47:57;2.10;;;1.85;;
966;SDS011;56108;48.730;9.304;2022-09-30T13:50:17;1.80;;;1.70;;
966;SDS011;56108;48.730;9.304;2022-09-30T13:52:37;1.73;;;1.63;;
966;SDS011;56108;48.730;9.304;2022-09-30T13:54:48;1.63;;;1.52;;
966;SDS011;56108;48.730;9.304;2022-09-30T13:56:59;1.92;;;1.83;;